UKHH/HRK METAR and TAF weather

Enter ICAO airport designator
Station Type Date Time Source
UKHH METAR 2021/09/16 10:00 UTC NOAA

UKHH 161000Z 34004MPS 290V040 CAVOK 19/01 Q1018 R07/0///81 NOSIG


Station Type Date Time Source
UKHH Decoded METAR 2021/09/16 10:00 UTC NOAA

Kharkiv, Ukraine (UKHH) 49-58N 036-08E 155M
Sep 16, 2021 - 06:00 AM EDT / 2021.09.16 1000 UTC
Wind: from the NNW (340 degrees) at 9 MPH (8 KT) (direction variable):0
Visibility: greater than 7 mile(s):0
Temperature: 66 F (19 C)
Dew Point: 33 F (1 C)
Relative Humidity: 29%
Pressure (altimeter): 30.06 in. Hg (1018 hPa)
ob: UKHH 161000Z 34004MPS 290V040 CAVOK 19/01 Q1018 R07/0///81 NOSIG
cycle: 10

Station Type Date Time Source
UKHH TAF 2021/09/16 06:09 UTC NOAA

TAF UKHH 160502Z 1606/1706 35004G09MPS 9999 SCT030
BECMG 1616/1618 08001MPS

Example: see airport list